createdAt,value
2019-03-21T00:00:17.293Z,72.33
2019-03-21T00:01:17.280Z,72.33
2019-03-21T00:02:17.268Z,72.47
2019-03-21T00:03:17.263Z,72.64
2019-03-21T00:04:17.255Z,72.96
2019-03-21T00:05:17.241Z,72.96
2019-03-21T00:06:17.237Z,72.75
2019-03-21T00:07:17.235Z,72.64
2019-03-21T00:08:17.224Z,72.78
2019-03-21T00:09:17.197Z,72.85
2019-03-21T00:10:17.201Z,73.17
2019-03-21T00:11:17.188Z,73.07
2019-03-21T00:12:17.169Z,72.64
2019-03-21T00:13:17.196Z,73.27
2019-03-21T00:14:17.220Z,73.27
2019-03-21T00:15:17.132Z,73.10
2019-03-21T00:16:17.123Z,72.99
2019-03-21T00:17:17.117Z,73.79
2019-03-21T00:18:17.110Z,73.58
2019-03-21T00:19:17.087Z,73.17
2019-03-21T00:20:17.081Z,73.48
2019-03-21T00:21:17.066Z,73.48
2019-03-21T00:22:17.063Z,73.20
2019-03-21T00:23:17.058Z,72.99
2019-03-21T00:24:17.063Z,73.41
2019-03-21T00:25:17.025Z,72.78
2019-03-21T00:26:17.016Z,72.89
2019-03-21T00:27:17.006Z,73.10
2019-03-21T00:28:17.060Z,72.96
2019-03-21T00:29:16.990Z,73.10
2019-03-21T00:30:16.978Z,73.93
2019-03-21T00:31:16.962Z,73.41
2019-03-21T00:32:17.108Z,72.89
2019-03-21T00:33:16.965Z,72.89
2019-03-21T00:34:16.932Z,72.68
2019-03-21T00:35:16.916Z,72.58
2019-03-21T00:36:16.907Z,73.10
2019-03-21T00:37:16.896Z,73.75
2019-03-21T00:38:16.893Z,73.52
2019-03-21T00:39:16.952Z,73.83
2019-03-21T00:40:17.712Z,73.72
2019-03-21T00:41:17.750Z,73.86
2019-03-21T00:42:16.916Z,73.52
2019-03-21T00:43:16.856Z,73.62
2019-03-21T00:44:18.353Z,73.44
2019-03-21T00:45:16.814Z,74.18
2019-03-21T00:46:16.917Z,73.96
2019-03-21T00:47:16.794Z,73.75
2019-03-21T00:48:16.785Z,73.44
2019-03-21T00:49:17.679Z,74.18
2019-03-21T00:50:16.759Z,73.65
2019-03-21T00:51:16.747Z,73.86
2019-03-21T00:52:16.738Z,73.65
2019-03-21T00:53:16.733Z,73.34
2019-03-21T00:54:16.745Z,73.24
2019-03-21T00:55:16.704Z,73.44
2019-03-21T00:56:16.696Z,74.00
2019-03-21T00:57:16.692Z,73.79
2019-03-21T00:58:16.684Z,74.10
2019-03-21T00:59:16.674Z,74.21
2019-03-21T01:00:16.649Z,73.79
2019-03-21T01:01:16.657Z,73.69
2019-03-21T01:02:16.628Z,74.10
2019-03-21T01:03:16.626Z,73.79
2019-03-21T01:04:16.640Z,74.00
2019-03-21T01:05:16.605Z,74.63
2019-03-21T01:06:16.598Z,74.42
2019-03-21T01:07:16.574Z,74.84
2019-03-21T01:08:16.687Z,74.94
2019-03-21T01:09:16.566Z,74.63
2019-03-21T01:10:16.545Z,74.63
2019-03-21T01:11:16.535Z,74.31
2019-03-21T01:12:16.521Z,74.52
2019-03-21T01:13:16.511Z,74.42
2019-03-21T01:14:16.551Z,74.52
2019-03-21T01:15:16.489Z,74.84
2019-03-21T01:16:16.491Z,74.73
2019-03-21T01:17:16.466Z,74.42
2019-03-21T01:18:16.455Z,74.63
2019-03-21T01:19:16.484Z,74.42
2019-03-21T01:20:16.441Z,74.73
2019-03-21T01:21:16.424Z,75.26
2019-03-21T01:22:16.412Z,75.15
2019-03-21T01:23:16.436Z,74.94
2019-03-21T01:24:16.392Z,74.94
2019-03-21T01:25:16.398Z,75.46
2019-03-21T01:26:16.374Z,74.84
2019-03-21T01:27:16.357Z,75.26
2019-03-21T01:28:16.348Z,75.04
2019-03-21T01:29:16.342Z,74.84
2019-03-21T01:30:16.404Z,74.84
2019-03-21T01:31:16.316Z,74.52
2019-03-21T01:32:16.306Z,74.45
2019-03-21T01:33:16.345Z,74.52
2019-03-21T01:34:16.299Z,74.21
2019-03-21T01:35:16.274Z,75.04
2019-03-21T01:36:16.263Z,75.04
2019-03-21T01:37:16.250Z,74.73
2019-03-21T01:38:16.254Z,74.31
2019-03-21T01:39:16.230Z,75.08
2019-03-21T01:40:16.226Z,74.98
2019-03-21T01:41:16.209Z,75.18
2019-03-21T01:42:16.197Z,74.87
2019-03-21T01:43:16.243Z,74.76
2019-03-21T01:44:16.178Z,74.87
2019-03-21T01:45:16.203Z,75.49
2019-03-21T01:46:16.162Z,75.29
2019-03-21T01:47:16.148Z,75.29
2019-03-21T01:48:16.131Z,75.60
2019-03-21T01:49:16.123Z,75.49
2019-03-21T01:50:16.136Z,75.60
2019-03-21T01:51:16.110Z,75.39
2019-03-21T01:52:16.254Z,75.43
2019-03-21T01:53:16.090Z,75.53
2019-03-21T01:54:16.069Z,75.63
2019-03-21T01:55:16.072Z,75.60
2019-03-21T01:56:16.051Z,75.81
2019-03-21T01:57:16.067Z,75.95
2019-03-21T01:58:16.024Z,75.74
2019-03-21T01:59:16.017Z,75.95
2019-03-21T02:00:16.021Z,76.37
2019-03-21T02:01:15.996Z,76.16
2019-03-21T02:02:15.981Z,76.26
2019-03-21T02:03:15.992Z,76.37
2019-03-21T02:04:15.964Z,76.57
2019-03-21T02:05:15.959Z,76.89
2019-03-21T02:06:15.981Z,77.00
2019-03-21T02:07:15.958Z,77.10
2019-03-21T02:08:15.918Z,77.10
2019-03-21T02:09:15.912Z,77.31
2019-03-21T02:10:15.920Z,77.42
2019-03-21T02:11:15.886Z,77.94
2019-03-21T02:12:15.875Z,77.73
2019-03-21T02:13:15.866Z,77.73
2019-03-21T02:14:15.876Z,77.94
2019-03-21T02:15:15.851Z,77.73
2019-03-21T02:16:15.841Z,77.87
2019-03-21T02:17:15.819Z,77.83
2019-03-21T02:18:15.812Z,78.15
2019-03-21T02:19:15.805Z,78.36
2019-03-21T02:20:15.788Z,77.94
2019-03-21T02:21:15.778Z,78.25
2019-03-21T02:22:15.767Z,78.08
2019-03-21T02:23:15.760Z,78.15
2019-03-21T02:24:15.748Z,78.29
2019-03-21T02:25:15.734Z,78.04
2019-03-21T02:26:15.756Z,78.25
2019-03-21T02:27:15.710Z,78.29
2019-03-21T02:28:15.700Z,78.29
2019-03-21T02:29:15.694Z,78.29
2019-03-21T02:30:15.679Z,78.18
2019-03-21T02:31:15.676Z,78.08
2019-03-21T02:32:15.673Z,78.08
2019-03-21T02:33:15.664Z,78.08
2019-03-21T02:34:16.174Z,77.66
2019-03-21T02:35:15.624Z,78.04
2019-03-21T02:36:15.616Z,77.87
2019-03-21T02:37:15.613Z,77.76
2019-03-21T02:38:15.597Z,78.08
2019-03-21T02:39:15.585Z,77.97
2019-03-21T02:40:15.575Z,78.18
2019-03-21T02:41:15.566Z,77.83
2019-03-21T02:42:15.550Z,77.87
2019-03-21T02:43:15.571Z,77.76
2019-03-21T02:44:15.528Z,77.76
2019-03-21T02:45:15.547Z,78.08
2019-03-21T02:46:15.634Z,77.87
2019-03-21T02:47:15.508Z,77.87
2019-03-21T02:48:15.488Z,78.08
2019-03-21T02:49:15.486Z,77.97
2019-03-21T02:50:15.516Z,77.76
2019-03-21T02:51:15.626Z,77.87
2019-03-21T02:52:15.552Z,77.76
2019-03-21T02:53:15.579Z,78.08
2019-03-21T02:54:15.423Z,77.87
2019-03-21T02:55:15.417Z,77.87
2019-03-21T02:56:15.415Z,77.87
2019-03-21T02:57:15.394Z,77.87
2019-03-21T02:58:15.386Z,77.76
2019-03-21T02:59:15.380Z,77.87
2019-03-21T03:00:15.399Z,77.97
2019-03-21T03:01:15.370Z,77.97
2019-03-21T03:02:15.332Z,77.97
2019-03-21T03:03:15.326Z,77.97
2019-03-21T03:04:15.335Z,77.76
2019-03-21T03:05:15.306Z,77.66
2019-03-21T03:06:15.328Z,77.97
2019-03-21T03:07:15.290Z,77.55
2019-03-21T03:08:15.272Z,78.08
2019-03-21T03:09:15.269Z,78.22
2019-03-21T03:10:15.251Z,77.91
2019-03-21T03:11:15.306Z,77.97
2019-03-21T03:12:15.258Z,77.91
2019-03-21T03:13:15.222Z,78.01
2019-03-21T03:14:15.214Z,78.18
2019-03-21T03:15:22.608Z,77.76
2019-03-21T03:16:16.195Z,77.76
2019-03-21T03:17:15.167Z,77.97
2019-03-21T03:18:15.178Z,78.01
2019-03-21T03:19:15.147Z,77.66
2019-03-21T03:20:15.137Z,77.91
2019-03-21T03:21:15.149Z,77.80
2019-03-21T03:22:15.127Z,77.91
2019-03-21T03:23:15.118Z,78.11
2019-03-21T03:24:15.099Z,77.69
2019-03-21T03:25:15.099Z,78.08
2019-03-21T03:26:15.100Z,78.22
2019-03-21T03:27:15.062Z,78.22
2019-03-21T03:28:15.054Z,78.32
2019-03-21T03:29:15.050Z,78.01
2019-03-21T03:30:15.029Z,77.80
2019-03-21T03:31:15.038Z,78.11
2019-03-21T03:32:15.074Z,77.91
2019-03-21T03:33:15.030Z,78.01
2019-03-21T03:34:14.996Z,78.01
2019-03-21T03:35:15.002Z,78.67
2019-03-21T03:36:15.007Z,78.95
2019-03-21T03:37:14.953Z,78.53
2019-03-21T03:38:14.961Z,78.22
2019-03-21T03:39:14.939Z,78.53
2019-03-21T03:40:14.924Z,78.53
2019-03-21T03:41:14.939Z,78.74
2019-03-21T03:42:14.929Z,78.43
2019-03-21T03:43:14.922Z,78.67
2019-03-21T03:44:14.880Z,78.64
2019-03-21T03:45:14.868Z,78.46
2019-03-21T03:46:14.864Z,78.78
2019-03-21T03:47:14.857Z,78.57
2019-03-21T03:48:14.836Z,78.57
2019-03-21T03:49:14.835Z,78.78
2019-03-21T03:50:14.860Z,79.09
2019-03-21T03:51:14.819Z,79.30
2019-03-21T03:52:14.811Z,79.09
2019-03-21T03:53:14.783Z,78.46
2019-03-21T03:54:14.775Z,78.46
2019-03-21T03:55:14.764Z,78.36
2019-03-21T03:56:14.757Z,78.88
2019-03-21T03:57:14.750Z,79.20
2019-03-21T03:58:14.764Z,78.46
2019-03-21T03:59:14.714Z,78.67
2019-03-21T04:00:14.741Z,78.67
2019-03-21T04:01:14.705Z,78.36
2019-03-21T04:02:14.714Z,78.78
2019-03-21T04:03:14.681Z,78.36
2019-03-21T04:04:15.652Z,78.57
2019-03-21T04:05:14.657Z,78.67
2019-03-21T04:06:14.651Z,78.78
2019-03-21T04:07:14.663Z,78.67
2019-03-21T04:08:14.625Z,78.57
2019-03-21T04:09:14.674Z,78.46
2019-03-21T04:10:14.596Z,78.78
2019-03-21T04:11:14.703Z,78.99
2019-03-21T04:12:14.583Z,78.88
2019-03-21T04:13:14.577Z,79.30
2019-03-21T04:14:14.573Z,79.20
2019-03-21T04:15:14.544Z,79.09
2019-03-21T04:16:14.543Z,78.88
2019-03-21T04:17:14.536Z,79.30
2019-03-21T04:18:14.512Z,79.30
2019-03-21T04:19:14.496Z,78.99
2019-03-21T04:20:14.491Z,79.34
2019-03-21T04:21:14.515Z,79.09
2019-03-21T04:22:14.482Z,79.51
2019-03-21T04:23:14.474Z,79.93
2019-03-21T04:24:14.445Z,79.30
2019-03-21T04:25:14.435Z,79.93
2019-03-21T04:26:14.428Z,79.86
2019-03-21T04:27:14.419Z,80.46
2019-03-21T04:28:14.407Z,79.97
2019-03-21T04:29:14.404Z,79.97
2019-03-21T04:30:14.393Z,80.60
2019-03-21T04:31:14.374Z,80.91
2019-03-21T04:32:14.374Z,81.01
2019-03-21T04:33:14.372Z,80.91
2019-03-21T04:34:14.345Z,81.23
2019-03-21T04:35:14.336Z,80.70
2019-03-21T04:36:14.324Z,80.80
2019-03-21T04:37:14.326Z,81.54
2019-03-21T04:38:14.318Z,81.54
2019-03-21T04:39:14.300Z,81.64
2019-03-21T04:40:14.279Z,81.64
2019-03-21T04:41:14.270Z,81.64
2019-03-21T04:42:14.266Z,81.64
2019-03-21T04:43:14.265Z,81.64
2019-03-21T04:44:14.228Z,81.54
2019-03-21T04:45:14.223Z,81.54
2019-03-21T04:46:14.212Z,81.68
2019-03-21T04:47:14.235Z,81.47
2019-03-21T04:48:14.201Z,81.26
2019-03-21T04:49:14.199Z,81.37
2019-03-21T04:50:14.184Z,81.37
2019-03-21T04:51:14.156Z,81.16
2019-03-21T04:52:14.152Z,81.26
2019-03-21T04:53:14.161Z,81.26
2019-03-21T04:54:14.120Z,81.16
2019-03-21T04:55:14.115Z,81.26
2019-03-21T04:56:14.112Z,81.26
2019-03-21T04:57:14.095Z,81.47
2019-03-21T04:58:14.094Z,81.47
2019-03-21T04:59:14.085Z,81.37
2019-03-21T05:00:14.055Z,81.57
2019-03-21T05:01:14.122Z,81.26
2019-03-21T05:02:14.652Z,81.16
2019-03-21T05:03:14.058Z,81.26
2019-03-21T05:04:14.017Z,81.16
2019-03-21T05:05:14.061Z,81.26
2019-03-21T05:06:14.016Z,81.16
2019-03-21T05:07:13.977Z,81.12
2019-03-21T05:08:14.001Z,81.26
2019-03-21T05:09:14.149Z,81.12
2019-03-21T05:10:13.951Z,81.47
2019-03-21T05:11:13.936Z,81.75
2019-03-21T05:12:13.933Z,81.26
2019-03-21T05:13:13.929Z,81.89
2019-03-21T05:14:13.908Z,81.79
2019-03-21T05:15:13.953Z,81.43
2019-03-21T05:16:14.883Z,81.79
2019-03-21T05:17:13.875Z,81.75
2019-03-21T05:18:13.879Z,81.68
2019-03-21T05:19:13.849Z,81.16
2019-03-21T05:20:14.487Z,81.26
2019-03-21T05:21:13.843Z,81.47
2019-03-21T05:22:13.825Z,81.79
2019-03-21T05:23:13.831Z,81.89
2019-03-21T05:24:13.855Z,81.68
2019-03-21T05:25:13.790Z,81.79
2019-03-21T05:26:13.805Z,82.10
2019-03-21T05:27:13.763Z,82.20
2019-03-21T05:28:13.762Z,82.52
2019-03-21T05:29:13.804Z,82.20
2019-03-21T05:30:13.736Z,82.42
2019-03-21T05:31:13.845Z,82.42
2019-03-21T05:32:13.763Z,82.42
2019-03-21T05:33:13.718Z,82.73
2019-03-21T05:34:13.706Z,83.25
2019-03-21T05:35:13.721Z,83.32
2019-03-21T05:36:14.093Z,83.25
2019-03-21T05:37:13.668Z,83.25
2019-03-21T05:38:13.728Z,83.25
2019-03-21T05:39:13.641Z,83.32
2019-03-21T05:40:13.646Z,83.22
2019-03-21T05:41:13.615Z,83.36
2019-03-21T05:42:13.601Z,83.01
2019-03-21T05:43:13.596Z,83.22
2019-03-21T05:44:13.579Z,83.01
2019-03-21T05:45:13.574Z,82.59
2019-03-21T05:46:13.563Z,82.48
2019-03-21T05:47:13.572Z,82.38
2019-03-21T05:48:13.734Z,82.38
2019-03-21T05:49:13.552Z,82.38
2019-03-21T05:50:15.064Z,82.38
2019-03-21T05:51:13.512Z,82.48
2019-03-21T05:52:13.505Z,82.79
2019-03-21T05:53:13.625Z,83.22
2019-03-21T05:54:13.500Z,83.32
2019-03-21T05:55:13.466Z,83.32
2019-03-21T05:56:13.468Z,83.28
2019-03-21T05:57:13.457Z,83.07
2019-03-21T05:58:13.499Z,83.32
2019-03-21T05:59:13.457Z,82.23
2019-03-21T06:00:13.442Z,81.92
2019-03-21T06:01:13.418Z,82.03
2019-03-21T06:02:13.386Z,82.03
2019-03-21T06:03:13.382Z,81.92
2019-03-21T06:04:13.367Z,81.71
2019-03-21T06:05:13.384Z,81.57
2019-03-21T06:06:13.361Z,81.26
2019-03-21T06:07:13.378Z,81.15
2019-03-21T06:08:13.331Z,81.15
2019-03-21T06:09:13.360Z,81.15
2019-03-21T06:10:13.308Z,81.04
2019-03-21T06:11:13.289Z,81.26
2019-03-21T06:12:13.294Z,81.43
2019-03-21T06:13:13.280Z,81.63
2019-03-21T06:14:13.265Z,80.90
2019-03-21T06:15:13.381Z,81.12
2019-03-21T06:16:13.236Z,80.49
2019-03-21T06:17:13.229Z,81.12
2019-03-21T06:18:13.232Z,80.59
2019-03-21T06:19:13.215Z,80.38
2019-03-21T06:20:13.196Z,79.50
2019-03-21T06:21:13.192Z,79.72
2019-03-21T06:22:13.182Z,79.50
2019-03-21T06:23:13.187Z,79.50
2019-03-21T06:24:13.176Z,80.13
2019-03-21T06:25:15.882Z,79.40
2019-03-21T06:26:13.140Z,79.09
2019-03-21T06:27:14.851Z,78.74
2019-03-21T06:28:13.143Z,78.74
2019-03-21T06:29:13.109Z,78.74
2019-03-21T06:30:13.166Z,78.01
2019-03-21T06:31:13.238Z,77.69
2019-03-21T06:32:13.247Z,78.28
2019-03-21T06:33:13.123Z,77.90
2019-03-21T06:34:13.042Z,77.66
2019-03-21T06:35:13.030Z,77.31
2019-03-21T06:36:13.025Z,77.14
2019-03-21T06:37:13.088Z,77.10
2019-03-21T06:38:13.006Z,76.79
2019-03-21T06:39:12.997Z,76.79
2019-03-21T06:40:13.066Z,76.16
2019-03-21T06:41:12.979Z,76.47
2019-03-21T06:42:12.966Z,76.44
2019-03-21T06:43:12.946Z,76.16
2019-03-21T06:44:12.976Z,75.92
2019-03-21T06:45:12.923Z,75.92
2019-03-21T06:46:12.926Z,75.92
2019-03-21T06:47:12.913Z,75.78
2019-03-21T06:48:12.899Z,75.81
2019-03-21T06:49:12.980Z,75.67
2019-03-21T06:50:12.873Z,75.78
2019-03-21T06:51:13.617Z,75.46
2019-03-21T06:52:12.851Z,74.80
2019-03-21T06:53:12.867Z,74.18
2019-03-21T06:54:12.830Z,74.80
2019-03-21T06:55:12.821Z,74.18
2019-03-21T06:56:12.810Z,73.86
2019-03-21T06:57:12.806Z,73.24
2019-03-21T06:58:12.817Z,72.89
2019-03-21T06:59:12.783Z,73.03
2019-03-21T07:00:12.780Z,73.10
2019-03-21T07:01:12.757Z,73.00
2019-03-21T07:02:12.763Z,73.21
2019-03-21T07:03:12.748Z,72.78
2019-03-21T07:04:12.731Z,71.95
2019-03-21T07:05:12.823Z,72.44
2019-03-21T07:06:12.724Z,71.71
2019-03-21T07:07:12.692Z,71.71
2019-03-21T07:08:12.812Z,71.71
2019-03-21T07:09:29.123Z,71.68
2019-03-21T07:10:12.684Z,71.26
2019-03-21T07:11:12.649Z,70.95
2019-03-21T07:12:12.643Z,69.70
2019-03-21T07:13:12.700Z,70.43
2019-03-21T07:14:12.685Z,69.67
2019-03-21T07:15:12.695Z,70.01
2019-03-21T07:16:12.712Z,70.50
2019-03-21T07:17:12.604Z,70.09
2019-03-21T07:18:12.611Z,69.67
2019-03-21T07:19:12.579Z,69.87
2019-03-21T07:20:12.550Z,69.77
2019-03-21T07:21:12.543Z,69.64
2019-03-21T07:22:12.642Z,69.32
2019-03-21T07:23:12.521Z,69.32
2019-03-21T07:24:12.524Z,69.95
2019-03-21T07:25:12.501Z,69.64
2019-03-21T07:26:12.504Z,69.19
2019-03-21T07:27:12.475Z,69.01
2019-03-21T07:28:12.569Z,69.09
2019-03-21T07:29:12.457Z,69.29
2019-03-21T07:30:12.444Z,68.25
2019-03-21T07:31:12.437Z,68.15
2019-03-21T07:32:12.430Z,67.70
2019-03-21T07:33:12.423Z,67.49
2019-03-21T07:34:12.416Z,67.70
2019-03-21T07:35:12.407Z,67.70
2019-03-21T07:36:12.391Z,66.24
2019-03-21T07:37:12.370Z,66.63
2019-03-21T07:38:12.394Z,66.11
2019-03-21T07:39:12.362Z,67.15
2019-03-21T07:40:12.421Z,66.53
2019-03-21T07:41:12.335Z,66.42
2019-03-21T07:42:12.315Z,65.48
2019-03-21T07:43:13.110Z,65.25
2019-03-21T07:44:12.356Z,65.45
2019-03-21T07:45:12.288Z,65.56
2019-03-21T07:46:12.281Z,65.94
2019-03-21T07:47:13.432Z,64.62
2019-03-21T07:48:12.256Z,65.01
2019-03-21T07:49:12.253Z,64.49
2019-03-21T07:50:12.391Z,65.01
2019-03-21T07:51:12.220Z,64.80
2019-03-21T07:52:12.221Z,64.04
2019-03-21T07:53:12.213Z,63.84
2019-03-21T07:54:12.192Z,63.01
2019-03-21T07:55:12.193Z,63.42
2019-03-21T07:56:12.175Z,63.42
2019-03-21T07:57:12.162Z,63.11
2019-03-21T07:58:12.154Z,61.94
2019-03-21T07:59:12.151Z,62.46
2019-03-21T08:00:12.150Z,61.71
2019-03-21T08:01:12.132Z,61.81
2019-03-21T08:02:12.109Z,61.71
2019-03-21T08:03:12.151Z,61.40
2019-03-21T08:04:12.159Z,61.05
2019-03-21T08:05:12.127Z,61.57
2019-03-21T08:06:12.065Z,61.57
2019-03-21T08:07:12.051Z,61.44
2019-03-21T08:08:12.052Z,61.34
2019-03-21T08:09:12.030Z,61.72
2019-03-21T08:10:12.039Z,61.72
2019-03-21T08:11:12.033Z,60.87
2019-03-21T08:12:12.047Z,60.35
2019-03-21T08:13:11.995Z,60.01
2019-03-21T08:14:11.979Z,59.99
2019-03-21T08:15:11.995Z,58.61
2019-03-21T08:16:11.968Z,56.62
2019-03-21T08:17:11.965Z,56.83
2019-03-21T08:18:12.646Z,56.18
2019-03-21T08:19:11.937Z,55.77
2019-03-21T08:20:11.932Z,55.72
2019-03-21T08:21:11.918Z,56.31
2019-03-21T08:22:11.901Z,54.86
2019-03-21T08:23:11.901Z,52.66
2019-03-21T08:24:11.873Z,50.98
2019-03-21T08:25:11.864Z,50.24
2019-03-21T08:26:11.847Z,49.88
2019-03-21T08:27:12.070Z,49.96
2019-03-21T08:28:11.831Z,48.29
2019-03-21T08:29:11.848Z,47.74
2019-03-21T08:30:11.812Z,45.17
2019-03-21T08:31:11.794Z,46.05
2019-03-21T08:32:11.783Z,44.59
2019-03-21T08:33:11.778Z,45.09
2019-03-21T08:34:11.763Z,44.35
2019-03-21T08:35:11.774Z,43.38
2019-03-21T08:36:11.744Z,43.47
2019-03-21T08:37:11.725Z,42.91
2019-03-21T08:38:11.718Z,41.56
2019-03-21T08:39:11.715Z,38.89
2019-03-21T08:40:11.709Z,38.14
2019-03-21T08:41:11.688Z,37.51
2019-03-21T08:42:11.686Z,38.12
2019-03-21T08:43:11.670Z,36.99
2019-03-21T08:44:11.662Z,34.01
2019-03-21T08:45:11.661Z,35.22
2019-03-21T08:46:11.636Z,34.39
2019-03-21T08:47:11.624Z,34.07
2019-03-21T08:48:11.612Z,35.80
2019-03-21T08:49:11.634Z,34.88
2019-03-21T08:50:11.606Z,34.46
2019-03-21T08:51:11.579Z,33.85
2019-03-21T08:52:11.582Z,33.54
2019-03-21T08:53:11.553Z,33.33
2019-03-21T08:54:11.557Z,32.10
2019-03-21T08:55:11.537Z,33.73
2019-03-21T08:56:11.522Z,32.71
2019-03-21T08:57:11.514Z,31.48
2019-03-21T08:58:11.543Z,30.76
2019-03-21T08:59:11.495Z,32.48
2019-03-21T09:00:11.491Z,33.50
2019-03-21T09:01:11.474Z,34.82
2019-03-21T09:02:11.460Z,31.77
2019-03-21T09:03:11.453Z,31.86
2019-03-21T09:04:11.455Z,31.76
2019-03-21T09:05:11.457Z,31.96
2019-03-21T09:06:11.427Z,32.23
2019-03-21T09:07:11.419Z,32.44
2019-03-21T09:08:11.398Z,31.71
2019-03-21T09:09:11.392Z,29.97
2019-03-21T09:10:11.385Z,30.27
2019-03-21T09:11:11.471Z,30.66
2019-03-21T09:12:11.356Z,28.22
2019-03-21T09:13:11.351Z,29.13
2019-03-21T09:14:11.331Z,29.22
2019-03-21T09:15:11.351Z,28.00
2019-03-21T09:16:11.316Z,27.51
2019-03-21T09:17:11.308Z,27.91
2019-03-21T09:18:11.290Z,28.22
2019-03-21T09:19:11.281Z,27.81
2019-03-21T09:20:11.300Z,28.22
2019-03-21T09:21:19.545Z,27.20
2019-03-21T09:22:12.246Z,27.30
2019-03-21T09:23:11.244Z,28.72
2019-03-21T09:24:11.226Z,29.33
2019-03-21T09:25:11.220Z,28.82
2019-03-21T09:26:11.290Z,28.92
2019-03-21T09:27:11.238Z,28.61
2019-03-21T09:28:13.922Z,29.61
2019-03-21T09:29:11.185Z,28.11
2019-03-21T09:30:11.285Z,29.13
2019-03-21T09:31:11.159Z,28.72
2019-03-21T09:32:11.174Z,30.04
2019-03-21T09:33:11.139Z,28.70
2019-03-21T09:34:11.119Z,29.22
2019-03-21T09:35:12.451Z,29.13
2019-03-21T09:36:11.104Z,29.22
2019-03-21T09:37:11.117Z,29.53
2019-03-21T09:38:11.071Z,28.82
2019-03-21T09:39:11.063Z,29.02
2019-03-21T09:40:11.057Z,29.33
2019-03-21T09:41:11.045Z,29.83
2019-03-21T09:42:11.033Z,30.04
2019-03-21T09:43:11.032Z,29.01
2019-03-21T09:44:11.024Z,30.73
2019-03-21T09:45:11.004Z,29.72
2019-03-21T09:46:10.991Z,28.89
2019-03-21T09:47:10.975Z,29.60
2019-03-21T09:48:11.070Z,29.30
2019-03-21T09:49:10.964Z,30.50
2019-03-21T09:50:10.958Z,30.50
2019-03-21T09:51:10.938Z,29.47
2019-03-21T09:52:10.924Z,30.18
2019-03-21T09:53:10.926Z,27.96
2019-03-21T09:54:10.905Z,28.16
2019-03-21T09:55:10.896Z,27.76
2019-03-21T09:56:10.939Z,28.96
2019-03-21T09:57:10.881Z,27.75
2019-03-21T09:58:10.859Z,28.35
2019-03-21T09:59:10.860Z,26.93
2019-03-21T10:00:10.841Z,26.25
2019-03-21T10:01:10.836Z,27.67
2019-03-21T10:02:10.828Z,28.68
2019-03-21T10:03:10.922Z,27.57
2019-03-21T10:04:10.797Z,28.98
2019-03-21T10:05:10.789Z,28.36
2019-03-21T10:06:10.784Z,27.56
2019-03-21T10:07:10.765Z,28.26
2019-03-21T10:08:10.762Z,26.84
2019-03-21T10:09:10.757Z,28.15
2019-03-21T10:10:10.736Z,27.95
2019-03-21T10:11:10.739Z,27.34
2019-03-21T10:12:10.714Z,26.33
2019-03-21T10:13:10.709Z,27.04
2019-03-21T10:14:10.697Z,27.55
2019-03-21T10:15:10.716Z,28.15
2019-03-21T10:16:10.680Z,26.53
2019-03-21T10:17:10.664Z,27.44
2019-03-21T10:18:10.652Z,28.23
2019-03-21T10:19:10.644Z,27.03
2019-03-21T10:20:10.638Z,26.12
2019-03-21T10:21:10.681Z,26.22
2019-03-21T10:22:10.644Z,25.01
2019-03-21T10:23:10.618Z,25.41
2019-03-21T10:24:10.593Z,27.22
2019-03-21T10:25:10.576Z,26.09
2019-03-21T10:26:10.568Z,25.89
2019-03-21T10:27:10.587Z,23.77
2019-03-21T10:28:10.584Z,24.19
2019-03-21T10:29:10.535Z,25.69
2019-03-21T10:30:10.526Z,25.49
2019-03-21T10:31:10.522Z,26.48
2019-03-21T10:32:14.472Z,25.38
2019-03-21T10:33:10.514Z,26.48
2019-03-21T10:34:10.483Z,25.07
2019-03-21T10:35:10.478Z,23.96
2019-03-21T10:36:10.468Z,24.55
2019-03-21T10:37:10.455Z,24.15
2019-03-21T10:38:10.454Z,24.95
2019-03-21T10:39:10.449Z,25.04
2019-03-21T10:40:10.430Z,23.63
2019-03-21T10:41:10.421Z,24.93
2019-03-21T10:42:10.472Z,24.82
2019-03-21T10:43:10.824Z,23.52
2019-03-21T10:44:10.379Z,24.52
2019-03-21T10:45:10.402Z,24.73
2019-03-21T10:46:10.378Z,23.52
2019-03-21T10:47:10.357Z,23.32
2019-03-21T10:48:10.347Z,22.41
2019-03-21T10:49:10.349Z,22.81
2019-03-21T10:50:10.326Z,24.42
2019-03-21T10:51:10.334Z,22.11
2019-03-21T10:52:10.307Z,23.52
2019-03-21T10:53:10.285Z,24.13
2019-03-21T10:54:10.315Z,23.92
2019-03-21T10:55:10.273Z,23.52
2019-03-21T10:56:10.274Z,23.41
2019-03-21T10:57:10.251Z,23.61
2019-03-21T10:58:10.244Z,22.71
2019-03-21T10:59:10.251Z,23.60
2019-03-21T11:00:10.213Z,24.20
2019-03-21T11:01:10.221Z,24.40
2019-03-21T11:02:10.194Z,23.28
2019-03-21T11:03:10.218Z,23.08
2019-03-21T11:04:10.174Z,22.97
2019-03-21T11:05:10.163Z,23.57
2019-03-21T11:06:10.162Z,21.96
2019-03-21T11:07:10.148Z,22.47
2019-03-21T11:08:10.138Z,22.76
2019-03-21T11:09:10.149Z,23.36
2019-03-21T11:10:10.133Z,23.36
2019-03-21T11:11:10.159Z,23.16
2019-03-21T11:12:10.095Z,22.56
2019-03-21T11:13:10.093Z,21.56
2019-03-21T11:14:10.073Z,23.06
2019-03-21T11:15:10.098Z,23.46
2019-03-21T11:16:10.053Z,23.46
2019-03-21T11:17:10.043Z,22.16
2019-03-21T11:18:10.038Z,21.65
2019-03-21T11:19:10.026Z,22.25
2019-03-21T11:20:10.022Z,23.16
2019-03-21T11:21:10.021Z,23.86
2019-03-21T11:22:09.999Z,23.36
2019-03-21T11:23:10.014Z,24.35
2019-03-21T11:24:09.969Z,22.84
2019-03-21T11:25:09.961Z,22.34
2019-03-21T11:26:09.960Z,22.94
2019-03-21T11:27:09.947Z,22.73
2019-03-21T11:28:09.943Z,21.53
2019-03-21T11:29:09.924Z,23.53
2019-03-21T11:30:15.954Z,22.33
2019-03-21T11:31:10.898Z,23.03
2019-03-21T11:32:09.911Z,23.13
2019-03-21T11:33:09.877Z,25.22
2019-03-21T11:34:09.873Z,22.81
2019-03-21T11:35:09.854Z,22.20
2019-03-21T11:36:09.861Z,21.91
2019-03-21T11:37:09.846Z,22.69
2019-03-21T11:38:09.830Z,23.19
2019-03-21T11:39:09.823Z,23.19
2019-03-21T11:40:09.803Z,22.89
2019-03-21T11:41:09.795Z,21.48
2019-03-21T11:42:09.812Z,20.48
2019-03-21T11:43:09.801Z,21.39
2019-03-21T11:44:09.968Z,22.08
2019-03-21T11:45:10.003Z,23.79
2019-03-21T11:46:09.748Z,22.69
2019-03-21T11:47:09.770Z,22.99
2019-03-21T11:48:09.718Z,20.89
2019-03-21T11:49:09.710Z,22.39
2019-03-21T11:50:09.703Z,21.88
2019-03-21T11:51:09.691Z,20.87
2019-03-21T11:52:18.221Z,21.47
2019-03-21T11:53:10.673Z,19.68
2019-03-21T11:54:09.661Z,20.07
2019-03-21T11:55:09.648Z,19.68
2019-03-21T11:56:09.643Z,20.87
2019-03-21T11:57:09.641Z,19.68
2019-03-21T11:58:09.637Z,21.67
2019-03-21T11:59:09.609Z,23.16
2019-03-21T12:00:09.610Z,20.76
2019-03-21T12:01:09.584Z,21.17
2019-03-21T12:02:09.578Z,21.17
2019-03-21T12:03:09.581Z,20.48
2019-03-21T12:04:09.558Z,20.68
2019-03-21T12:05:09.552Z,19.67
2019-03-21T12:06:09.544Z,21.17
2019-03-21T12:07:09.550Z,20.87
2019-03-21T12:08:09.516Z,21.75
2019-03-21T12:09:09.505Z,19.67
2019-03-21T12:10:09.497Z,19.67
2019-03-21T12:11:09.480Z,21.97
2019-03-21T12:12:09.474Z,21.78
2019-03-21T12:13:09.466Z,21.48
2019-03-21T12:14:09.494Z,23.49
2019-03-21T12:15:09.450Z,21.39
2019-03-21T12:16:09.484Z,22.69
2019-03-21T12:17:09.441Z,22.88
2019-03-21T12:18:09.407Z,21.89
2019-03-21T12:19:09.647Z,21.00
2019-03-21T12:20:09.443Z,23.39
2019-03-21T12:21:09.446Z,22.00
2019-03-21T12:22:10.473Z,23.11
2019-03-21T12:23:09.437Z,23.02
2019-03-21T12:24:09.419Z,24.11
2019-03-21T12:25:09.332Z,24.01
2019-03-21T12:26:09.321Z,23.21
2019-03-21T12:27:09.321Z,22.41
2019-03-21T12:28:09.317Z,21.61
2019-03-21T12:29:09.314Z,22.41
2019-03-21T12:30:10.176Z,21.30
2019-03-21T12:31:09.309Z,22.60
2019-03-21T12:32:09.329Z,21.30
2019-03-21T12:33:09.315Z,21.89
2019-03-21T12:34:09.260Z,21.59
2019-03-21T12:35:09.237Z,21.70
2019-03-21T12:36:09.267Z,21.69
2019-03-21T12:37:09.232Z,20.89
2019-03-21T12:38:09.232Z,19.68
2019-03-21T12:39:09.192Z,21.48
2019-03-21T12:40:09.182Z,20.89
2019-03-21T12:41:09.170Z,21.08
2019-03-21T12:42:09.172Z,20.68
2019-03-21T12:43:09.150Z,20.68
2019-03-21T12:44:09.265Z,20.48
2019-03-21T12:45:09.149Z,21.37
2019-03-21T12:46:09.120Z,21.47
2019-03-21T12:47:09.133Z,20.68
2019-03-21T12:48:09.101Z,21.08
2019-03-21T12:49:09.086Z,20.57
2019-03-21T12:50:09.083Z,20.68
2019-03-21T12:51:09.118Z,19.68
2019-03-21T12:52:09.063Z,21.37